createdAt,value
2018-07-07T00:00:38.811Z,59.61
2018-07-07T00:01:38.872Z,59.12
2018-07-07T00:03:31.865Z,60.47
2018-07-07T00:04:31.927Z,61.05
2018-07-07T00:06:24.928Z,61.69
2018-07-07T00:07:24.984Z,61.59
2018-07-07T00:09:17.977Z,61.88
2018-07-07T00:10:18.041Z,62.55
2018-07-07T00:12:11.041Z,62.93
2018-07-07T00:13:11.096Z,63.42
2018-07-07T00:15:04.095Z,64.09
2018-07-07T00:16:04.152Z,63.79
2018-07-07T00:17:57.143Z,65.43
2018-07-07T00:18:57.208Z,65.14
2018-07-07T00:20:50.209Z,65.81
2018-07-07T00:21:50.263Z,66.86
2018-07-07T00:23:43.256Z,67.16
2018-07-07T00:24:43.316Z,67.35
2018-07-07T00:26:36.317Z,67.92
2018-07-07T00:27:36.381Z,68.21
2018-07-07T00:29:29.371Z,69.26
2018-07-07T00:30:29.433Z,69.62
2018-07-07T00:32:22.432Z,69.74
2018-07-07T00:33:22.489Z,70.13
2018-07-07T00:35:15.489Z,70.48
2018-07-07T00:36:15.546Z,70.96
2018-07-07T00:38:08.539Z,71.53
2018-07-07T00:39:08.609Z,71.63
2018-07-07T00:41:01.608Z,71.63
2018-07-07T00:42:01.659Z,72.49
2018-07-07T00:43:54.652Z,72.39
2018-07-07T00:44:54.736Z,72.49
2018-07-07T00:46:47.718Z,72.59
2018-07-07T00:47:47.775Z,72.59
2018-07-07T00:49:40.782Z,72.97
2018-07-07T00:50:40.831Z,72.68
2018-07-07T00:52:33.829Z,72.68
2018-07-07T00:53:33.891Z,72.68
2018-07-07T00:55:26.904Z,72.49
2018-07-07T00:56:26.947Z,72.68
2018-07-07T00:58:19.944Z,71.92
2018-07-07T00:59:20.004Z,71.72
2018-07-07T01:01:13.005Z,72.01
2018-07-07T01:02:13.059Z,71.63
2018-07-07T01:04:06.062Z,71.31
2018-07-07T01:05:06.123Z,71.50
2018-07-07T01:06:59.120Z,70.92
2018-07-07T01:07:59.175Z,71.21
2018-07-07T01:09:52.166Z,70.73
2018-07-07T01:10:52.232Z,69.77
2018-07-07T01:12:45.233Z,69.77
2018-07-07T01:13:45.292Z,69.77
2018-07-07T01:15:38.281Z,69.39
2018-07-07T01:16:38.342Z,69.20
2018-07-07T01:18:31.346Z,69.20
2018-07-07T01:19:31.405Z,68.43
2018-07-07T01:21:24.410Z,68.72
2018-07-07T01:22:24.468Z,68.52
2018-07-07T01:24:17.459Z,68.43
2018-07-07T01:25:17.527Z,68.52
2018-07-07T01:27:10.538Z,68.33
2018-07-07T01:28:10.581Z,68.43
2018-07-07T01:30:03.570Z,68.52
2018-07-07T01:31:03.636Z,68.62
2018-07-07T01:32:56.631Z,68.43
2018-07-07T01:33:56.689Z,68.14
2018-07-07T01:35:49.697Z,68.85
2018-07-07T01:36:49.750Z,68.52
2018-07-07T01:38:42.751Z,67.89
2018-07-07T01:39:42.807Z,68.37
2018-07-07T01:41:35.807Z,68.18
2018-07-07T01:42:35.862Z,68.66
2018-07-07T01:44:28.862Z,68.75
2018-07-07T01:45:28.936Z,68.08
2018-07-07T01:47:21.923Z,68.27
2018-07-07T01:48:21.982Z,68.08
2018-07-07T01:50:14.989Z,68.46
2018-07-07T01:51:15.037Z,67.99
2018-07-07T01:53:08.037Z,68.08
2018-07-07T01:54:08.092Z,68.18
2018-07-07T01:56:01.087Z,68.18
2018-07-07T01:57:01.147Z,68.66
2018-07-07T01:58:54.148Z,68.37
2018-07-07T01:59:54.205Z,68.46
2018-07-07T02:01:47.206Z,67.89
2018-07-07T02:02:47.263Z,67.79
2018-07-07T02:04:40.264Z,68.66
2018-07-07T02:05:40.325Z,67.99
2018-07-07T02:07:33.324Z,67.50
2018-07-07T02:08:33.379Z,67.44
2018-07-07T02:10:26.416Z,67.41
2018-07-07T02:11:26.435Z,68.21
2018-07-07T02:13:19.442Z,68.21
2018-07-07T02:14:19.498Z,68.21
2018-07-07T02:16:12.495Z,67.73
2018-07-07T02:17:12.553Z,67.89
2018-07-07T02:19:05.554Z,67.41
2018-07-07T02:20:05.608Z,67.60
2018-07-07T02:21:58.620Z,67.32
2018-07-07T02:22:58.665Z,67.32
2018-07-07T02:24:51.657Z,67.41
2018-07-07T02:25:51.722Z,67.60
2018-07-07T02:27:44.721Z,67.69
2018-07-07T02:28:44.778Z,67.69
2018-07-07T02:30:37.775Z,66.93
2018-07-07T02:31:37.839Z,67.32
2018-07-07T02:33:30.833Z,66.64
2018-07-07T02:34:30.892Z,67.12
2018-07-07T02:36:25.412Z,67.32
2018-07-07T02:37:25.465Z,67.69
2018-07-07T02:39:18.470Z,66.83
2018-07-07T02:40:18.526Z,66.83
2018-07-07T02:42:11.519Z,67.02
2018-07-07T02:43:11.579Z,66.93
2018-07-07T02:45:04.579Z,66.83
2018-07-07T02:46:04.636Z,66.45
2018-07-07T02:47:57.642Z,66.93
2018-07-07T02:48:57.701Z,66.26
2018-07-07T02:50:50.691Z,66.64
2018-07-07T02:51:50.754Z,65.88
2018-07-07T02:53:43.754Z,67.02
2018-07-07T02:54:43.812Z,66.45
2018-07-07T02:56:36.804Z,66.35
2018-07-07T02:57:36.869Z,66.45
2018-07-07T02:59:29.867Z,65.30
2018-07-07T03:00:29.924Z,65.46
2018-07-07T03:02:22.923Z,65.46
2018-07-07T03:03:23.033Z,65.17
2018-07-07T03:05:15.981Z,64.22
2018-07-07T03:06:16.042Z,64.40
2018-07-07T03:08:09.032Z,63.42
2018-07-07T03:09:09.094Z,63.64
2018-07-07T03:11:02.097Z,63.03
2018-07-07T03:12:02.153Z,63.45
2018-07-07T03:13:55.151Z,62.84
2018-07-07T03:14:55.207Z,63.03
2018-07-07T03:16:48.197Z,62.01
2018-07-07T03:17:48.286Z,62.96
2018-07-07T03:19:41.260Z,62.07
2018-07-07T03:20:41.313Z,62.84
2018-07-07T03:22:34.309Z,62.17
2018-07-07T03:23:34.374Z,62.26
2018-07-07T03:25:27.376Z,62.49
2018-07-07T03:26:27.425Z,63.32
2018-07-07T03:28:20.421Z,63.54
2018-07-07T03:29:20.485Z,63.35
2018-07-07T03:31:13.484Z,62.96
2018-07-07T03:32:13.540Z,62.84
2018-07-07T03:34:06.553Z,62.46
2018-07-07T03:35:06.593Z,62.74
2018-07-07T03:37:00.096Z,62.07
2018-07-07T03:38:00.171Z,62.46
2018-07-07T03:39:53.157Z,61.98
2018-07-07T03:40:53.212Z,61.98
2018-07-07T03:42:46.203Z,61.79
2018-07-07T03:43:46.266Z,61.40
2018-07-07T03:45:39.265Z,61.02
2018-07-07T03:46:39.343Z,60.93
2018-07-07T03:48:32.310Z,60.25
2018-07-07T03:49:32.376Z,59.68
2018-07-07T03:51:25.373Z,59.68
2018-07-07T03:52:25.426Z,59.48
2018-07-07T03:54:18.438Z,58.05
2018-07-07T03:55:18.479Z,57.86
2018-07-07T03:57:11.470Z,58.15
2018-07-07T03:58:11.534Z,57.76
2018-07-07T04:00:04.531Z,57.67
2018-07-07T04:01:04.588Z,57.76
2018-07-07T04:02:57.576Z,57.38
2018-07-07T04:03:57.640Z,56.61
2018-07-07T04:05:50.638Z,57.06
2018-07-07T04:06:50.692Z,56.68
2018-07-07T04:08:43.682Z,56.52
2018-07-07T04:09:43.745Z,56.81
2018-07-07T04:11:36.742Z,56.13
2018-07-07T04:12:36.797Z,55.91
2018-07-07T04:14:29.816Z,56.04
2018-07-07T04:15:29.849Z,55.65
2018-07-07T04:17:22.840Z,55.18
2018-07-07T04:18:22.900Z,54.99
2018-07-07T04:20:15.900Z,54.50
2018-07-07T04:21:15.955Z,54.50
2018-07-07T04:23:08.945Z,54.60
2018-07-07T04:24:09.007Z,53.83
2018-07-07T04:26:02.017Z,54.79
2018-07-07T04:27:02.067Z,53.55
2018-07-07T04:28:55.059Z,53.64
2018-07-07T04:29:55.121Z,53.55
2018-07-07T04:31:48.128Z,53.55
2018-07-07T04:32:48.175Z,53.26
2018-07-07T04:34:41.164Z,53.55
2018-07-07T04:35:41.227Z,53.74
2018-07-07T04:37:34.225Z,53.36
2018-07-07T04:38:34.280Z,53.16
2018-07-07T04:40:27.277Z,53.55
2018-07-07T04:41:27.335Z,53.55
2018-07-07T04:43:20.332Z,53.36
2018-07-07T04:44:20.392Z,53.28
2018-07-07T04:46:13.389Z,53.36
2018-07-07T04:47:13.450Z,52.87
2018-07-07T04:49:06.438Z,52.30
2018-07-07T04:50:06.500Z,52.40
2018-07-07T04:51:59.496Z,51.44
2018-07-07T04:52:59.553Z,51.08
2018-07-07T04:54:52.548Z,51.15
2018-07-07T04:55:52.612Z,50.96
2018-07-07T04:57:45.615Z,50.99
2018-07-07T04:58:45.665Z,51.18
2018-07-07T05:00:38.671Z,50.38
2018-07-07T05:01:38.723Z,50.22
2018-07-07T05:03:31.717Z,49.84
2018-07-07T05:04:31.796Z,49.65
2018-07-07T05:06:24.776Z,50.32
2018-07-07T05:07:24.829Z,49.93
2018-07-07T05:09:17.821Z,50.12
2018-07-07T05:10:17.884Z,48.88
2018-07-07T05:12:10.881Z,50.12
2018-07-07T05:13:10.935Z,50.22
2018-07-07T05:15:03.945Z,49.74
2018-07-07T05:16:04.014Z,51.08
2018-07-07T05:17:57.060Z,52.04
2018-07-07T05:18:57.089Z,52.55
2018-07-07T05:20:50.056Z,53.22
2018-07-07T05:21:50.119Z,52.93
2018-07-07T05:23:43.117Z,52.55
2018-07-07T05:24:43.175Z,52.36
2018-07-07T05:26:36.176Z,51.30
2018-07-07T05:27:36.230Z,51.10
2018-07-07T05:29:29.227Z,51.78
2018-07-07T05:30:29.288Z,51.40
2018-07-07T05:32:22.288Z,51.20
2018-07-07T05:33:22.345Z,51.01
2018-07-07T05:35:15.341Z,51.49
2018-07-07T05:36:15.412Z,51.10
2018-07-07T05:38:08.404Z,51.20
2018-07-07T05:39:08.460Z,51.49
2018-07-07T05:41:01.452Z,51.51
2018-07-07T05:42:01.516Z,52.28
2018-07-07T05:43:54.516Z,52.48
2018-07-07T05:44:54.574Z,52.19
2018-07-07T05:46:47.574Z,51.81
2018-07-07T05:47:47.631Z,50.27
2018-07-07T05:49:40.622Z,51.61
2018-07-07T05:50:40.687Z,53.53
2018-07-07T05:52:33.693Z,51.04
2018-07-07T05:53:33.745Z,51.32
2018-07-07T05:55:26.737Z,52.76
2018-07-07T05:56:26.803Z,53.72
2018-07-07T05:58:19.804Z,51.71
2018-07-07T05:59:19.863Z,55.07
2018-07-07T06:01:12.854Z,54.68
2018-07-07T06:02:12.924Z,55.57
2018-07-07T06:04:05.921Z,55.96
2018-07-07T06:05:05.979Z,56.24
2018-07-07T06:06:58.978Z,56.34
2018-07-07T06:07:59.035Z,56.15
2018-07-07T06:09:52.027Z,57.78
2018-07-07T06:10:52.095Z,58.87
2018-07-07T06:12:45.092Z,60.31
2018-07-07T06:13:45.148Z,61.20
2018-07-07T06:15:38.142Z,63.22
2018-07-07T06:16:38.206Z,63.35
2018-07-07T06:18:31.722Z,67.51
2018-07-07T06:19:31.774Z,69.18
2018-07-07T06:21:24.770Z,72.27
2018-07-07T06:22:24.848Z,72.25
2018-07-07T06:24:17.831Z,68.37
2018-07-07T06:25:17.889Z,64.98
2018-07-07T06:27:10.889Z,57.90
2018-07-07T06:28:10.947Z,55.53
2018-07-07T06:30:03.948Z,51.75
2018-07-07T06:31:04.014Z,52.45
2018-07-07T06:32:57.021Z,53.44
2018-07-07T06:33:57.104Z,52.42
2018-07-07T06:35:50.082Z,49.19
2018-07-07T06:36:50.150Z,48.22
2018-07-07T06:38:43.159Z,46.42
2018-07-07T06:39:43.218Z,45.18
2018-07-07T06:41:36.230Z,46.47
2018-07-07T06:42:36.292Z,45.52
2018-07-07T06:44:29.312Z,44.13
2018-07-07T06:45:29.371Z,43.70
2018-07-07T06:47:22.378Z,43.62
2018-07-07T06:48:22.444Z,43.66
2018-07-07T06:50:15.699Z,41.05
2018-07-07T06:51:15.787Z,41.46
2018-07-07T06:53:08.601Z,39.75
2018-07-07T06:54:08.607Z,38.96
2018-07-07T06:56:01.630Z,38.22
2018-07-07T06:57:01.989Z,37.93
2018-07-07T06:58:54.709Z,37.47
2018-07-07T06:59:54.817Z,36.61
2018-07-07T07:01:47.794Z,35.94
2018-07-07T07:02:47.856Z,35.75
2018-07-07T07:04:40.881Z,36.16
2018-07-07T07:05:40.958Z,35.39
2018-07-07T07:07:33.972Z,35.55
2018-07-07T07:08:34.050Z,35.58
2018-07-07T07:10:27.064Z,35.76
2018-07-07T07:11:27.133Z,34.61
2018-07-07T07:13:20.160Z,33.87
2018-07-07T07:14:20.234Z,33.69
2018-07-07T07:16:13.248Z,31.82
2018-07-07T07:17:13.319Z,31.82
2018-07-07T07:19:06.345Z,32.23
2018-07-07T07:20:06.422Z,31.66
2018-07-07T07:21:59.434Z,32.05
2018-07-07T07:22:59.510Z,31.40
2018-07-07T07:24:52.533Z,32.71
2018-07-07T07:25:52.626Z,31.84
2018-07-07T07:27:45.618Z,32.20
2018-07-07T07:28:45.694Z,32.02
2018-07-07T07:30:38.719Z,30.10
2018-07-07T07:31:38.789Z,29.49
2018-07-07T07:33:31.806Z,30.36
2018-07-07T07:34:31.884Z,30.46
2018-07-07T07:36:24.908Z,30.49
2018-07-07T07:37:24.978Z,29.34
2018-07-07T07:39:18.006Z,29.25
2018-07-07T07:40:18.076Z,28.66
2018-07-07T07:42:11.097Z,27.91
2018-07-07T07:43:11.190Z,27.51
2018-07-07T07:45:04.202Z,27.50
2018-07-07T07:46:04.275Z,27.30
2018-07-07T07:47:57.293Z,27.00
2018-07-07T07:48:57.374Z,26.90
2018-07-07T07:50:50.400Z,28.08
2018-07-07T07:51:50.475Z,27.31
2018-07-07T07:53:43.496Z,26.77
2018-07-07T07:54:43.576Z,26.09
2018-07-07T07:56:36.602Z,24.44
2018-07-07T07:57:36.675Z,24.14
2018-07-07T07:59:29.712Z,24.90
2018-07-07T08:00:29.787Z,24.98
2018-07-07T08:02:22.814Z,25.01
2018-07-07T08:03:22.894Z,24.32
2018-07-07T08:05:15.925Z,24.22
2018-07-07T08:06:15.997Z,24.03
2018-07-07T08:08:09.026Z,24.22
2018-07-07T08:09:09.109Z,23.44
2018-07-07T08:11:02.139Z,23.35
2018-07-07T08:12:02.214Z,24.01
2018-07-07T08:13:55.238Z,24.81
2018-07-07T08:14:55.323Z,24.09
2018-07-07T08:16:48.357Z,24.18
2018-07-07T08:17:48.427Z,24.49
2018-07-07T08:19:41.454Z,23.59
2018-07-07T08:20:41.535Z,24.57
2018-07-07T08:22:34.593Z,25.45
2018-07-07T08:23:34.642Z,24.67
2018-07-07T08:25:27.675Z,24.19
2018-07-07T08:26:27.749Z,24.39
2018-07-07T08:28:20.822Z,24.29
2018-07-07T08:29:20.859Z,24.81
2018-07-07T08:31:13.894Z,25.05
2018-07-07T08:32:13.967Z,25.04
2018-07-07T08:34:06.996Z,28.38
2018-07-07T08:35:07.077Z,27.20
2018-07-07T08:37:00.112Z,29.02
2018-07-07T08:38:00.187Z,28.75
2018-07-07T08:39:53.212Z,27.84
2018-07-07T08:40:53.296Z,26.48
2018-07-07T08:42:46.329Z,25.50
2018-07-07T08:43:46.405Z,25.32
2018-07-07T08:45:39.434Z,25.03
2018-07-07T08:46:39.515Z,25.29
2018-07-07T08:48:32.532Z,25.90
2018-07-07T08:49:32.612Z,25.22
2018-07-07T08:51:25.645Z,25.96
2018-07-07T08:52:25.720Z,27.31
2018-07-07T08:54:18.746Z,29.79
2018-07-07T08:55:18.870Z,29.73
2018-07-07T08:57:11.862Z,27.33
2018-07-07T08:58:11.931Z,27.32
2018-07-07T09:00:04.954Z,27.92
2018-07-07T09:01:05.037Z,26.67
2018-07-07T09:02:58.570Z,26.19
2018-07-07T09:03:58.640Z,27.08
2018-07-07T09:05:51.681Z,25.23
2018-07-07T09:06:51.746Z,25.26
2018-07-07T09:08:44.771Z,24.56
2018-07-07T09:09:44.851Z,25.26
2018-07-07T09:11:37.887Z,24.76
2018-07-07T09:12:37.955Z,25.23
2018-07-07T09:14:30.986Z,25.62
2018-07-07T09:15:31.063Z,25.50
2018-07-07T09:17:24.098Z,25.82
2018-07-07T09:18:24.170Z,25.72
2018-07-07T09:20:17.197Z,25.43
2018-07-07T09:21:17.290Z,26.23
2018-07-07T09:23:10.308Z,24.66
2018-07-07T09:24:10.384Z,24.87
2018-07-07T09:26:03.415Z,25.15
2018-07-07T09:27:03.497Z,25.55
2018-07-07T09:28:56.545Z,25.44
2018-07-07T09:29:56.620Z,24.76
2018-07-07T09:31:49.657Z,26.12
2018-07-07T09:32:49.732Z,27.36
2018-07-07T09:34:42.771Z,28.41
2018-07-07T09:35:42.842Z,27.34
2018-07-07T09:37:35.876Z,28.11
2018-07-07T09:38:35.953Z,28.67
2018-07-07T09:40:28.980Z,33.18
2018-07-07T09:41:29.059Z,33.54
2018-07-07T09:43:22.107Z,34.86
2018-07-07T09:44:22.174Z,35.61
2018-07-07T09:46:15.192Z,37.21
2018-07-07T09:47:15.271Z,38.56
2018-07-07T09:49:08.295Z,38.56
2018-07-07T09:50:08.365Z,38.65
2018-07-07T09:52:01.387Z,39.34
2018-07-07T09:53:01.456Z,38.36
2018-07-07T09:54:54.470Z,38.85
2018-07-07T09:55:54.544Z,39.14
2018-07-07T09:57:47.569Z,38.83
2018-07-07T09:58:47.640Z,38.83
2018-07-07T10:00:40.650Z,40.00
2018-07-07T10:01:40.724Z,38.93
2018-07-07T10:03:34.250Z,39.76
2018-07-07T10:04:34.318Z,40.25
2018-07-07T10:06:27.325Z,41.10
2018-07-07T10:07:27.416Z,41.59
2018-07-07T10:09:20.412Z,42.15
2018-07-07T10:10:20.481Z,42.74
2018-07-07T10:12:13.506Z,42.71
2018-07-07T10:13:13.564Z,43.20
2018-07-07T10:15:06.572Z,42.71
2018-07-07T10:16:06.641Z,42.52
2018-07-07T10:17:59.663Z,42.61
2018-07-07T10:18:59.731Z,42.43
2018-07-07T10:20:52.740Z,42.81
2018-07-07T10:21:52.811Z,42.91
2018-07-07T10:23:45.828Z,42.99
2018-07-07T10:24:45.896Z,42.89
2018-07-07T10:26:38.904Z,42.77
2018-07-07T10:27:38.974Z,43.84
2018-07-07T10:29:31.988Z,43.35
2018-07-07T10:30:32.053Z,43.26
2018-07-07T10:32:25.062Z,43.84
2018-07-07T10:33:25.136Z,43.84
2018-07-07T10:35:18.147Z,43.74
2018-07-07T10:36:18.215Z,43.35
2018-07-07T10:38:11.272Z,42.60
2018-07-07T10:39:11.287Z,42.19
2018-07-07T10:41:04.292Z,42.99
2018-07-07T10:42:04.362Z,42.50
2018-07-07T10:43:57.371Z,42.60
2018-07-07T10:44:57.438Z,43.66
2018-07-07T10:46:50.488Z,43.27
2018-07-07T10:47:50.739Z,44.83
2018-07-07T10:49:43.529Z,42.79
2018-07-07T10:50:43.592Z,43.20
2018-07-07T10:52:36.599Z,42.99
2018-07-07T10:53:36.670Z,42.40
2018-07-07T10:55:29.711Z,41.63
2018-07-07T10:56:29.747Z,42.11
2018-07-07T10:58:22.758Z,42.57
2018-07-07T10:59:22.822Z,42.79
2018-07-07T11:01:15.826Z,46.28
2018-07-07T11:02:15.900Z,45.43
2018-07-07T11:04:08.935Z,42.52
2018-07-07T11:05:08.974Z,40.87
2018-07-07T11:07:01.978Z,40.67
2018-07-07T11:08:02.048Z,40.39
2018-07-07T11:09:55.063Z,42.03
2018-07-07T11:10:55.124Z,40.56
2018-07-07T11:12:48.130Z,42.50
2018-07-07T11:13:48.197Z,42.11
2018-07-07T11:15:41.207Z,42.29
2018-07-07T11:16:41.270Z,42.48
2018-07-07T11:18:34.284Z,42.55
2018-07-07T11:19:34.347Z,41.49
2018-07-07T11:21:27.354Z,42.55
2018-07-07T11:22:27.426Z,42.48
2018-07-07T11:24:20.437Z,42.96
2018-07-07T11:25:20.497Z,43.04
2018-07-07T11:27:13.503Z,43.45
2018-07-07T11:28:13.573Z,43.64
2018-07-07T11:30:06.582Z,43.62
2018-07-07T11:31:06.646Z,43.04
2018-07-07T11:32:59.654Z,43.13
2018-07-07T11:33:59.719Z,42.94
2018-07-07T11:35:52.738Z,43.23
2018-07-07T11:36:52.827Z,42.85
2018-07-07T11:38:45.802Z,43.62
2018-07-07T11:39:45.865Z,49.17
2018-07-07T11:41:38.871Z,43.64
2018-07-07T11:42:38.942Z,43.86
2018-07-07T11:44:31.953Z,44.03
2018-07-07T11:45:32.015Z,44.32
2018-07-07T11:47:25.020Z,43.16
2018-07-07T11:48:25.088Z,45.39
2018-07-07T11:50:18.173Z,43.64
2018-07-07T11:51:18.160Z,44.23
2018-07-07T11:53:11.165Z,44.42
2018-07-07T11:54:11.235Z,44.42
2018-07-07T11:56:04.239Z,44.23
2018-07-07T11:57:04.305Z,44.03
2018-07-07T11:58:57.311Z,44.03
2018-07-07T11:59:57.377Z,43.84
2018-07-07T12:01:50.400Z,44.42
2018-07-07T12:02:50.454Z,44.61
2018-07-07T12:04:43.618Z,45.39
2018-07-07T12:05:43.527Z,47.81
2018-07-07T12:07:37.040Z,46.77
2018-07-07T12:08:37.108Z,44.05
2018-07-07T12:10:30.120Z,42.89
2018-07-07T12:11:30.265Z,43.64
2018-07-07T12:13:23.190Z,43.74
2018-07-07T12:14:23.254Z,44.32
2018-07-07T12:16:16.287Z,43.95
2018-07-07T12:17:16.334Z,43.08
2018-07-07T12:19:09.341Z,43.27
2018-07-07T12:20:09.407Z,43.95
2018-07-07T12:22:02.437Z,43.35
2018-07-07T12:23:02.479Z,42.86
2018-07-07T12:24:55.601Z,44.32
2018-07-07T12:25:55.550Z,44.32
2018-07-07T12:27:48.551Z,44.71
2018-07-07T12:28:48.622Z,44.32
2018-07-07T12:30:41.628Z,45.00
2018-07-07T12:31:41.698Z,45.95
2018-07-07T12:33:34.689Z,45.48
2018-07-07T12:34:34.775Z,45.00
2018-07-07T12:36:27.776Z,44.90
2018-07-07T12:37:27.915Z,45.10
2018-07-07T12:39:20.879Z,45.00
2018-07-07T12:40:20.932Z,43.95
2018-07-07T12:42:13.953Z,44.34
2018-07-07T12:43:13.998Z,44.24
2018-07-07T12:45:07.011Z,44.23
2018-07-07T12:46:07.073Z,45.20
2018-07-07T12:48:00.076Z,44.42
2018-07-07T12:49:00.143Z,45.20
2018-07-07T12:50:53.158Z,44.32
2018-07-07T12:51:53.229Z,45.10
2018-07-07T12:53:46.225Z,45.10
2018-07-07T12:54:46.297Z,45.20
2018-07-07T12:56:39.302Z,44.90
2018-07-07T12:57:39.546Z,45.20
2018-07-07T12:59:32.369Z,45.00
2018-07-07T13:00:32.435Z,44.90
2018-07-07T13:02:25.457Z,45.10
2018-07-07T13:03:25.520Z,44.23
2018-07-07T13:05:18.534Z,45.02
2018-07-07T13:06:18.601Z,45.12
2018-07-07T13:08:11.599Z,45.02
2018-07-07T13:09:11.669Z,45.12
2018-07-07T13:11:04.685Z,46.86
2018-07-07T13:12:04.739Z,45.48
2018-07-07T13:13:57.752Z,45.39
2018-07-07T13:14:57.843Z,46.36
2018-07-07T13:16:50.824Z,45.78
2018-07-07T13:17:50.887Z,45.39
2018-07-07T13:19:43.895Z,46.48
2018-07-07T13:20:43.973Z,46.28
2018-07-07T13:22:36.989Z,45.97
2018-07-07T13:23:37.038Z,45.78
2018-07-07T13:25:30.062Z,45.68
2018-07-07T13:26:30.197Z,45.78
2018-07-07T13:28:23.117Z,46.65
2018-07-07T13:29:23.190Z,45.39
2018-07-07T13:31:16.225Z,46.16
2018-07-07T13:32:16.292Z,46.16
2018-07-07T13:34:09.289Z,46.16
2018-07-07T13:35:09.358Z,46.48
2018-07-07T13:37:02.367Z,45.10
2018-07-07T13:38:02.429Z,45.87
2018-07-07T13:39:55.434Z,45.87
2018-07-07T13:40:55.500Z,45.78
2018-07-07T13:42:49.017Z,45.00
2018-07-07T13:43:49.077Z,45.68
2018-07-07T13:45:42.105Z,46.26
2018-07-07T13:46:42.158Z,46.75
2018-07-07T13:48:35.157Z,45.87
2018-07-07T13:49:35.227Z,45.68
2018-07-07T13:51:28.244Z,46.07
2018-07-07T13:52:28.299Z,45.29
2018-07-07T13:54:21.303Z,45.20
2018-07-07T13:55:21.373Z,45.10
2018-07-07T13:57:14.384Z,45.75
2018-07-07T13:58:14.445Z,45.47
2018-07-07T14:00:07.449Z,45.85
2018-07-07T14:01:07.522Z,45.47
2018-07-07T14:03:00.533Z,45.00
2018-07-07T14:04:00.594Z,45.97
2018-07-07T14:05:53.594Z,45.78
2018-07-07T14:06:53.665Z,45.89
2018-07-07T14:08:46.670Z,44.54
2018-07-07T14:09:46.734Z,45.02
2018-07-07T14:11:39.748Z,45.21
2018-07-07T14:12:39.801Z,45.02
2018-07-07T14:14:32.811Z,45.51
2018-07-07T14:15:32.872Z,45.41
2018-07-07T14:17:25.911Z,46.26
2018-07-07T14:18:25.945Z,46.45
2018-07-07T14:20:18.945Z,46.65
2018-07-07T14:21:19.014Z,46.26
2018-07-07T14:23:12.021Z,46.36
2018-07-07T14:24:12.084Z,45.87
2018-07-07T14:26:05.093Z,46.16
2018-07-07T14:27:05.156Z,46.16
2018-07-07T14:28:58.162Z,45.78
2018-07-07T14:29:58.225Z,45.29
2018-07-07T14:31:51.264Z,45.48
2018-07-07T14:32:51.294Z,44.90
2018-07-07T14:34:44.302Z,44.42
2018-07-07T14:35:44.364Z,46.38
2018-07-07T14:37:37.373Z,45.80
2018-07-07T14:38:37.438Z,45.12
2018-07-07T14:40:30.440Z,45.41
2018-07-07T14:41:30.506Z,45.21
2018-07-07T14:43:24.022Z,45.21
2018-07-07T14:44:24.081Z,45.31
2018-07-07T14:46:17.082Z,45.41
2018-07-07T14:47:17.153Z,45.70
2018-07-07T14:49:10.167Z,45.99
2018-07-07T14:50:10.245Z,45.12
2018-07-07T14:52:03.255Z,45.58
2018-07-07T14:53:03.301Z,46.55
2018-07-07T14:54:56.302Z,45.80
2018-07-07T14:55:56.370Z,45.51
2018-07-07T14:57:49.377Z,45.99
2018-07-07T14:58:49.441Z,46.28
2018-07-07T15:00:42.436Z,45.31
2018-07-07T15:01:42.510Z,45.41
2018-07-07T15:03:35.525Z,45.02
2018-07-07T15:04:35.587Z,45.21
2018-07-07T15:06:28.590Z,45.51
2018-07-07T15:07:28.655Z,45.80
2018-07-07T15:09:21.670Z,45.80
2018-07-07T15:10:21.736Z,45.99
2018-07-07T15:12:14.741Z,46.26
2018-07-07T15:13:14.806Z,46.96
2018-07-07T15:15:07.810Z,45.99
2018-07-07T15:16:07.874Z,46.28
2018-07-07T15:18:00.879Z,45.99
2018-07-07T15:19:00.943Z,45.51
2018-07-07T15:20:53.947Z,45.41
2018-07-07T15:21:54.013Z,45.89
2018-07-07T15:23:47.021Z,46.28
2018-07-07T15:24:47.082Z,46.19
2018-07-07T15:26:40.088Z,45.12
2018-07-07T15:27:40.154Z,44.92
2018-07-07T15:29:33.167Z,45.99
2018-07-07T15:30:33.233Z,45.12
2018-07-07T15:32:26.234Z,45.21
2018-07-07T15:33:26.305Z,45.89
2018-07-07T15:35:19.311Z,46.26
2018-07-07T15:36:19.372Z,45.41
2018-07-07T15:38:12.381Z,44.92
2018-07-07T15:39:12.456Z,45.70
2018-07-07T15:41:05.449Z,45.80
2018-07-07T15:42:05.517Z,45.31
2018-07-07T15:43:58.525Z,45.48
2018-07-07T15:44:58.587Z,45.29
2018-07-07T15:46:51.593Z,45.48
2018-07-07T15:47:51.661Z,45.10
2018-07-07T15:49:44.674Z,45.87
2018-07-07T15:50:44.739Z,45.29
2018-07-07T15:52:37.742Z,45.68
2018-07-07T15:53:37.808Z,45.61
2018-07-07T15:55:30.818Z,45.21
2018-07-07T15:56:30.877Z,45.10
2018-07-07T15:58:23.879Z,45.87
2018-07-07T15:59:23.948Z,45.48
2018-07-07T16:01:16.953Z,45.89
2018-07-07T16:02:17.015Z,45.80
2018-07-07T16:04:10.025Z,45.58
2018-07-07T16:05:10.083Z,45.87
2018-07-07T16:07:03.089Z,45.39
2018-07-07T16:08:03.152Z,45.87
2018-07-07T16:09:56.228Z,46.16
2018-07-07T16:10:56.223Z,46.16
2018-07-07T16:12:49.223Z,46.45
2018-07-07T16:13:49.291Z,46.75
2018-07-07T16:15:42.303Z,46.45
2018-07-07T16:16:42.359Z,46.36
2018-07-07T16:18:35.366Z,46.16
2018-07-07T16:19:35.432Z,45.97
2018-07-07T16:21:28.437Z,45.20
2018-07-07T16:22:28.500Z,45.78
2018-07-07T16:24:21.513Z,46.65
2018-07-07T16:25:21.581Z,45.87
2018-07-07T16:27:14.577Z,45.68
2018-07-07T16:28:14.643Z,46.26
2018-07-07T16:30:07.653Z,45.97
2018-07-07T16:31:07.726Z,46.36
2018-07-07T16:33:00.715Z,45.68
2018-07-07T16:34:00.786Z,46.16
2018-07-07T16:35:53.798Z,46.38
2018-07-07T16:36:53.860Z,45.97
2018-07-07T16:38:46.867Z,45.29
2018-07-07T16:39:47.204Z,45.10
2018-07-07T16:41:39.944Z,45.78
2018-07-07T16:42:40.008Z,45.87
2018-07-07T16:44:33.006Z,45.78
2018-07-07T16:45:33.067Z,46.16
2018-07-07T16:47:26.083Z,46.24
2018-07-07T16:48:26.143Z,46.33
2018-07-07T16:50:19.151Z,46.16
2018-07-07T16:51:19.213Z,46.33
2018-07-07T16:53:12.217Z,46.82
2018-07-07T16:54:12.286Z,46.92
2018-07-07T16:56:05.302Z,46.65
2018-07-07T16:57:05.357Z,46.82
2018-07-07T16:58:58.359Z,47.20
2018-07-07T16:59:58.428Z,47.30
2018-07-07T17:01:51.473Z,47.20
2018-07-07T17:02:51.499Z,47.60
2018-07-07T17:04:44.502Z,47.69
2018-07-07T17:05:44.568Z,48.18
2018-07-07T17:07:37.579Z,47.30
2018-07-07T17:08:37.634Z,47.30
2018-07-07T17:10:30.654Z,47.40
2018-07-07T17:11:30.707Z,47.69
2018-07-07T17:13:23.705Z,47.89
2018-07-07T17:14:23.778Z,48.27
2018-07-07T17:16:16.781Z,48.27
2018-07-07T17:17:16.845Z,47.67
2018-07-07T17:19:09.849Z,47.77
2018-07-07T17:20:09.932Z,48.06
2018-07-07T17:22:02.929Z,48.06
2018-07-07T17:23:02.990Z,48.44
2018-07-07T17:24:55.995Z,48.74
2018-07-07T17:25:56.059Z,48.54
2018-07-07T17:27:49.065Z,49.32
2018-07-07T17:28:49.127Z,49.12
2018-07-07T17:30:42.138Z,49.12
2018-07-07T17:31:42.201Z,49.32
2018-07-07T17:33:35.196Z,48.93
2018-07-07T17:34:35.264Z,49.32
2018-07-07T17:36:28.275Z,48.74
2018-07-07T17:37:28.343Z,48.44
2018-07-07T17:39:21.339Z,49.32
2018-07-07T17:40:21.407Z,48.81
2018-07-07T17:42:14.455Z,49.19
2018-07-07T17:43:14.476Z,50.26
2018-07-07T17:45:07.486Z,49.49
2018-07-07T17:46:07.563Z,50.26
2018-07-07T17:48:00.565Z,49.19
2018-07-07T17:49:00.622Z,50.19
2018-07-07T17:50:53.642Z,49.10
2018-07-07T17:51:53.691Z,49.39
2018-07-07T17:53:46.696Z,50.07
2018-07-07T17:54:46.760Z,49.97
2018-07-07T17:56:39.770Z,50.84
2018-07-07T17:57:39.828Z,50.35
2018-07-07T17:59:32.823Z,50.65
2018-07-07T18:00:32.898Z,51.30
2018-07-07T18:02:25.911Z,51.52
2018-07-07T18:03:25.975Z,51.40
2018-07-07T18:05:18.980Z,51.78
2018-07-07T18:06:19.046Z,51.78
2018-07-07T18:08:12.054Z,52.36
2018-07-07T18:09:12.115Z,52.85
2018-07-07T18:11:05.122Z,52.36
2018-07-07T18:12:05.182Z,53.11
2018-07-07T18:13:58.182Z,53.59
2018-07-07T18:14:58.248Z,53.14
2018-07-07T18:16:51.260Z,53.99
2018-07-07T18:17:51.318Z,54.08
2018-07-07T18:19:44.316Z,54.37
2018-07-07T18:20:44.387Z,54.66
2018-07-07T18:22:37.402Z,55.73
2018-07-07T18:23:37.461Z,55.15
2018-07-07T18:25:30.461Z,55.43
2018-07-07T18:26:30.550Z,56.30
2018-07-07T18:28:23.539Z,55.79
2018-07-07T18:29:23.596Z,55.99
2018-07-07T18:31:16.607Z,57.44
2018-07-07T18:32:16.693Z,57.60
2018-07-07T18:34:09.658Z,57.60